Time;durP1;ratioP1;P1;durP2;ratioP2;P2;SDS_P1;SDS_P2;PMS_P1;PMS_P2;Temp;Humidity;BMP_temperature;BMP_pressure;BME280_temperature;BME280_humidity;BME280_pressure;Samples;Min_cycle;Max_cycle;Signal;HPM_P1;HPM_P2
2022/12/15 01:22:19;;;;;;;5.33;4.30;;;2.20;99.90;;;;;;5104881;28;20234;-88
2022/12/15 01:24:52;;;;;;;5.87;3.90;;;2.20;99.90;;;;;;5118344;28;20240;-88
2022/12/15 01:27:23;;;;;;;6.50;4.17;;;2.20;99.90;;;;;;5114115;28;20658;-89
2022/12/15 01:29:55;;;;;;;5.50;3.80;;;2.10;99.90;;;;;;5101504;28;20231;-91
2022/12/15 01:32:27;;;;;;;6.40;4.00;;;2.10;99.90;;;;;;5096338;28;20199;-90
2022/12/15 01:34:57;;;;;;;7.30;4.63;;;2.20;99.90;;;;;;5109652;28;20219;-90
2022/12/15 01:37:28;;;;;;;6.17;4.60;;;2.20;99.90;;;;;;5113424;28;20253;-90
2022/12/15 01:42:49;;;;;;;5.37;3.70;;;2.10;99.90;;;;;;5129304;28;20201;-90
2022/12/15 01:45:52;;;;;;;4.80;3.50;;;2.10;99.90;;;;;;5129293;28;20210;-88
2022/12/15 01:48:30;;;;;;;4.63;3.80;;;2.10;99.90;;;;;;5115156;28;20198;-87
2022/12/15 01:51:09;;;;;;;5.40;3.63;;;2.10;99.90;;;;;;5103873;28;20391;-89
2022/12/15 01:53:43;;;;;;;5.03;3.93;;;2.10;99.90;;;;;;5106028;28;20261;-88
2022/12/15 01:56:23;;;;;;;5.83;3.93;;;2.10;99.90;;;;;;5115411;28;20207;-89
2022/12/15 01:58:58;;;;;;;3.77;3.37;;;2.10;99.90;;;;;;5116042;28;20281;-88
2022/12/15 02:01:28;;;;;;;4.10;3.60;;;2.10;99.90;;;;;;5116184;28;20222;-89
2022/12/15 02:04:05;;;;;;;5.50;3.87;;;2.10;99.90;;;;;;5109596;28;20289;-88
2022/12/15 02:06:39;;;;;;;6.87;4.17;;;2.10;99.90;;;;;;5091141;28;20264;-87
2022/12/15 02:09:11;;;;;;;4.80;3.63;;;2.00;99.90;;;;;;5097981;28;20210;-88
2022/12/15 02:12:06;;;;;;;9.47;3.60;;;2.00;99.90;;;;;;5096600;28;20307;-87
2022/12/15 02:15:01;;;;;;;5.60;3.63;;;2.00;99.90;;;;;;5083785;28;21132;-87
2022/12/15 02:17:41;;;;;;;5.10;3.60;;;2.00;99.90;;;;;;5095840;28;20221;-88
2022/12/15 02:20:41;;;;;;;4.70;3.73;;;2.00;99.90;;;;;;5104283;28;20673;-87
2022/12/15 02:23:55;;;;;;;4.40;3.40;;;1.90;99.90;;;;;;5107083;28;20199;-88
2022/12/15 02:27:02;;;;;;;6.13;3.67;;;1.90;99.90;;;;;;5101735;28;20211;-88
2022/12/15 02:30:21;;;;;;;5.60;3.80;;;2.00;99.90;;;;;;5087845;28;20206;-88
2022/12/15 02:33:10;;;;;;;6.70;3.90;;;1.90;99.90;;;;;;5096920;28;20288;-86
2022/12/15 02:35:55;;;;;;;5.67;3.97;;;1.80;99.90;;;;;;5097563;28;20231;-85
2022/12/15 02:38:31;;;;;;;6.67;4.27;;;1.70;99.90;;;;;;5098062;28;20219;-86
2022/12/15 02:41:04;;;;;;;5.23;3.70;;;1.70;99.90;;;;;;5106698;28;20246;-88
2022/12/15 02:43:39;;;;;;;5.67;3.97;;;1.70;99.90;;;;;;5104009;28;20199;-87
2022/12/15 02:46:23;;;;;;;5.80;4.40;;;1.70;99.90;;;;;;5111363;28;20194;-93
2022/12/15 02:49:07;;;;;;;6.10;4.00;;;1.60;99.90;;;;;;5087442;28;20199;-90
2022/12/15 02:51:51;;;;;;;7.93;4.30;;;1.50;99.90;;;;;;5107112;28;20227;-92
2022/12/15 02:54:40;;;;;;;6.60;4.57;;;1.50;99.90;;;;;;5098192;28;20199;-92
2022/12/15 02:57:20;;;;;;;5.47;4.40;;;1.50;99.90;;;;;;5105218;28;20291;-92
2022/12/15 02:59:59;;;;;;;7.30;4.43;;;1.50;99.90;;;;;;5105322;28;20214;-88
2022/12/15 03:02:33;;;;;;;7.00;3.90;;;1.50;99.90;;;;;;5097845;28;20282;-86
2022/12/15 03:05:08;;;;;;;6.03;4.90;;;1.50;99.90;;;;;;5099219;28;20211;-86
2022/12/15 03:07:41;;;;;;;6.90;5.13;;;1.50;99.90;;;;;;5091110;28;20194;-86
2022/12/15 03:10:15;;;;;;;6.73;5.17;;;1.50;99.90;;;;;;5106202;28;20213;-86
2022/12/15 03:12:47;;;;;;;8.77;5.27;;;1.40;99.90;;;;;;5093482;28;20773;-87
2022/12/15 03:15:18;;;;;;;6.43;4.97;;;1.40;99.90;;;;;;5089816;28;20286;-87
2022/12/15 03:17:49;;;;;;;7.47;5.20;;;1.40;99.90;;;;;;5085116;28;20207;-86
2022/12/15 03:20:23;;;;;;;7.27;5.37;;;1.40;99.90;;;;;;5080043;28;20241;-89
2022/12/15 03:22:53;;;;;;;7.83;5.10;;;1.40;99.90;;;;;;5096537;28;20207;-88
2022/12/15 03:25:25;;;;;;;8.00;5.50;;;1.40;99.90;;;;;;5105776;28;20250;-88
2022/12/15 03:27:57;;;;;;;7.23;5.73;;;1.40;99.90;;;;;;5108424;28;20633;-87
2022/12/15 03:30:29;;;;;;;6.47;5.17;;;1.40;99.90;;;;;;4755482;28;10000670;-85
2022/12/15 03:33:00;;;;;;;6.37;5.17;;;1.40;99.90;;;;;;5100148;28;20659;-87
2022/12/15 03:35:34;;;;;;;5.93;4.90;;;1.50;99.90;;;;;;5100520;28;20203;-88
2022/12/15 03:38:05;;;;;;;7.57;5.17;;;1.50;99.90;;;;;;5100781;28;20199;-95
2022/12/15 03:40:36;;;;;;;9.07;5.63;;;1.50;99.90;;;;;;5096885;28;20270;-89
2022/12/15 03:43:08;;;;;;;5.70;5.00;;;1.50;99.90;;;;;;5092484;28;20215;-89
2022/12/15 03:45:41;;;;;;;7.50;4.93;;;1.60;99.90;;;;;;5091324;28;20187;-88
2022/12/15 03:48:12;;;;;;;6.93;5.40;;;1.60;99.90;;;;;;5100742;28;20195;-87
2022/12/15 03:50:45;;;;;;;6.00;4.77;;;1.70;99.90;;;;;;5109850;28;20242;-90
2022/12/15 03:53:17;;;;;;;8.07;5.30;;;1.80;99.90;;;;;;5106960;28;20305;-87
2022/12/15 03:55:48;;;;;;;6.27;4.97;;;1.80;99.90;;;;;;5096588;28;20215;-89
2022/12/15 03:58:20;;;;;;;9.07;5.17;;;1.90;99.90;;;;;;5107276;28;20219;-87
2022/12/15 04:00:51;;;;;;;6.87;5.27;;;1.90;99.90;;;;;;5099503;28;20235;-88
2022/12/15 04:03:22;;;;;;;7.63;5.47;;;2.00;99.90;;;;;;5094642;28;20222;-87
2022/12/15 04:05:56;;;;;;;7.23;5.47;;;2.10;99.90;;;;;;5093669;28;20207;-88
2022/12/15 04:08:32;;;;;;;7.03;5.60;;;2.10;99.90;;;;;;5095564;28;20210;-87
2022/12/15 04:13:56;;;;;;;7.43;5.90;;;2.20;99.90;;;;;;5095570;28;20215;-85
2022/12/15 04:16:29;;;;;;;8.57;5.47;;;2.30;99.90;;;;;;5096281;28;20199;-85
2022/12/15 04:21:53;;;;;;;7.23;4.70;;;2.40;99.90;;;;;;5100925;28;20279;-85
2022/12/15 05:32:12;;;;;;;14.50;7.90;;;1.60;99.90;;;;;;5068281;28;20270;-86
2022/12/15 05:34:51;;;;;;;8.80;7.20;;;1.60;99.90;;;;;;5081384;28;20234;-89
2022/12/15 05:37:25;;;;;;;10.33;7.53;;;1.50;99.90;;;;;;5081893;28;20219;-87
2022/12/15 05:39:56;;;;;;;11.23;8.37;;;1.50;99.90;;;;;;5069876;28;20310;-88
2022/12/15 05:42:29;;;;;;;14.50;11.13;;;1.50;99.90;;;;;;5080265;28;20210;-90
2022/12/15 05:45:06;;;;;;;17.17;10.07;;;1.40;99.90;;;;;;5076910;28;20215;-89
2022/12/15 05:47:40;;;;;;;14.93;10.47;;;1.40;99.90;;;;;;5087371;28;20297;-89
2022/12/15 05:50:51;;;;;;;13.23;9.77;;;1.40;99.90;;;;;;5094392;28;20267;-87
2022/12/15 05:53:27;;;;;;;14.50;10.13;;;1.40;99.90;;;;;;5096538;28;20271;-88
2022/12/15 05:56:05;;;;;;;12.10;8.87;;;1.30;99.90;;;;;;5099969;28;20275;-89
2022/12/15 05:58:38;;;;;;;11.27;9.50;;;1.30;99.90;;;;;;5099692;28;20258;-87
2022/12/15 06:01:25;;;;;;;11.80;8.77;;;1.20;99.90;;;;;;5100237;28;20211;-88
2022/12/15 06:04:05;;;;;;;13.77;10.30;;;1.20;99.90;;;;;;5080522;28;20188;-88
2022/12/15 06:17:35;;;;;;;11.30;8.83;;;1.20;99.90;;;;;;5046691;28;20319;-87
2022/12/15 06:23:08;;;;;;;10.50;7.30;;;1.20;99.90;;;;;;5053615;28;20272;-87
2022/12/15 06:25:42;;;;;;;12.23;8.20;;;1.20;99.90;;;;;;5038416;28;20219;-86
2022/12/15 06:28:28;;;;;;;11.40;7.70;;;1.20;99.90;;;;;;5048884;28;20219;-88
2022/12/15 06:31:13;;;;;;;11.30;8.27;;;1.20;99.90;;;;;;5045702;28;20657;-87
2022/12/15 06:33:52;;;;;;;9.93;7.60;;;1.10;99.90;;;;;;5054674;28;20248;-88
2022/12/15 06:36:32;;;;;;;9.77;6.63;;;1.10;99.90;;;;;;5030836;28;20202;-88
2022/12/15 06:39:18;;;;;;;9.67;6.80;;;1.10;99.90;;;;;;5037256;28;20201;-87
2022/12/15 06:41:58;;;;;;;8.40;6.60;;;1.10;99.90;;;;;;5048259;28;20212;-89
2022/12/15 06:44:33;;;;;;;9.97;6.47;;;1.10;99.90;;;;;;5042110;28;20607;-88
2022/12/15 06:47:11;;;;;;;8.53;6.83;;;1.10;99.90;;;;;;5046583;28;20228;-88
2022/12/15 06:49:48;;;;;;;10.13;6.53;;;1.10;99.90;;;;;;5044757;28;20209;-89
2022/12/15 06:52:19;;;;;;;9.77;6.77;;;1.00;99.90;;;;;;5048766;28;20227;-88
2022/12/15 06:54:55;;;;;;;8.30;6.60;;;1.00;99.90;;;;;;5041908;28;20293;-88
2022/12/15 06:57:26;;;;;;;8.57;6.27;;;1.00;99.90;;;;;;5043167;28;20280;-88
2022/12/15 07:00:00;;;;;;;8.03;6.40;;;0.90;99.90;;;;;;5043217;28;20248;-87
2022/12/15 07:02:35;;;;;;;9.30;6.23;;;0.90;99.90;;;;;;5046779;28;20177;-88
2022/12/15 07:05:13;;;;;;;8.70;6.57;;;0.90;99.90;;;;;;5048117;28;20214;-89
2022/12/15 07:07:45;;;;;;;9.07;6.23;;;0.90;99.90;;;;;;5046001;28;20205;-89
2022/12/15 07:10:22;;;;;;;9.00;6.33;;;0.90;99.90;;;;;;5036616;28;20205;-89
2022/12/15 07:12:57;;;;;;;9.97;6.73;;;0.90;99.90;;;;;;5034319;28;20221;-89
2022/12/15 07:15:30;;;;;;;8.80;6.30;;;0.80;99.90;;;;;;5049179;28;20263;-86
2022/12/15 07:18:02;;;;;;;8.03;6.20;;;0.80;99.90;;;;;;5052521;28;20201;-89
2022/12/15 07:20:39;;;;;;;8.90;7.07;;;0.80;99.90;;;;;;5057992;28;20208;-89
2022/12/15 07:23:20;;;;;;;8.03;5.97;;;0.80;99.90;;;;;;5051212;28;20232;-88
2022/12/15 07:26:13;;;;;;;9.80;6.27;;;0.80;99.90;;;;;;5045931;28;20209;-87
2022/12/15 07:28:45;;;;;;;8.87;6.67;;;0.80;99.90;;;;;;5031946;28;22045;-88
2022/12/15 07:31:19;;;;;;;11.20;7.13;;;0.70;99.90;;;;;;5039150;28;20266;-88
2022/12/15 07:33:50;;;;;;;8.77;6.30;;;0.70;99.90;;;;;;5033815;28;20244;-88
2022/12/15 07:36:23;;;;;;;11.17;6.67;;;0.70;99.90;;;;;;5037186;28;20821;-87
2022/12/15 07:39:01;;;;;;;12.40;7.83;;;0.70;99.90;;;;;;5036975;28;20197;-89
2022/12/15 07:41:34;;;;;;;11.63;7.30;;;0.70;99.90;;;;;;5032212;28;20232;-89
2022/12/15 07:44:05;;;;;;;12.17;6.70;;;0.70;99.90;;;;;;5039601;28;20201;-88
2022/12/15 07:46:38;;;;;;;15.17;6.77;;;0.70;99.90;;;;;;5044109;28;20212;-88
2022/12/15 07:52:12;;;;;;;9.00;6.70;;;0.80;99.90;;;;;;5041547;28;20722;-89
2022/12/15 07:54:44;;;;;;;9.87;7.10;;;0.90;99.90;;;;;;5034389;28;20207;-89
2022/12/15 07:57:15;;;;;;;8.17;7.17;;;0.90;99.90;;;;;;5034536;28;20215;-89
2022/12/15 07:59:46;;;;;;;9.30;7.13;;;1.00;99.90;;;;;;5040889;28;20204;-88
2022/12/15 08:02:17;;;;;;;10.63;7.67;;;1.00;99.90;;;;;;5039104;28;20228;-87
2022/12/15 08:04:48;;;;;;;8.73;6.70;;;1.10;99.90;;;;;;5040345;28;20216;-86
2022/12/15 08:07:28;;;;;;;11.30;7.00;;;1.10;99.90;;;;;;5047260;28;20200;-87
2022/12/15 08:09:59;;;;;;;12.50;7.23;;;1.20;99.90;;;;;;5043727;28;20272;-88
2022/12/15 08:12:32;;;;;;;9.27;7.47;;;1.20;99.90;;;;;;5043767;28;20221;-87
2022/12/15 08:15:04;;;;;;;8.97;6.10;;;1.30;99.90;;;;;;5042889;28;20209;-88
2022/12/15 08:17:36;;;;;;;8.50;6.57;;;1.30;99.90;;;;;;5043905;28;20263;-89
2022/12/15 08:20:08;;;;;;;9.67;6.80;;;1.30;99.90;;;;;;5050616;28;20217;-87
2022/12/15 08:22:41;;;;;;;9.27;6.53;;;1.30;99.90;;;;;;5055294;28;20217;-90
2022/12/15 08:25:12;;;;;;;14.87;7.27;;;1.30;99.90;;;;;;5056461;28;20209;-88
2022/12/15 08:27:44;;;;;;;8.37;6.47;;;1.40;99.90;;;;;;5045979;28;20228;-88
2022/12/15 08:30:15;;;;;;;10.73;7.17;;;1.40;99.90;;;;;;5037973;28;20215;-87
2022/12/15 08:32:47;;;;;;;14.87;9.83;;;1.30;99.90;;;;;;5038003;28;20229;-87
2022/12/15 08:35:22;;;;;;;9.93;7.57;;;1.30;99.90;;;;;;5037508;28;20208;-87
2022/12/15 08:38:16;;;;;;;9.63;6.90;;;1.30;99.90;;;;;;5038230;28;20556;-87
2022/12/15 08:40:48;;;;;;;10.60;7.90;;;1.30;99.90;;;;;;5029645;28;20239;-87
2022/12/15 08:43:19;;;;;;;9.63;7.37;;;1.30;99.90;;;;;;5039643;28;20217;-88
2022/12/15 08:45:50;;;;;;;8.13;6.63;;;1.30;99.90;;;;;;5035106;28;20209;-89
2022/12/15 08:48:22;;;;;;;10.53;6.60;;;1.40;99.90;;;;;;5025661;28;20945;-87
